If you wish to contribute or participate in the discussions about articles you are invited to join SKYbrary as a registered user

 Actions

Qeshm International Airport

From SKYbrary Wiki

OIKQ
Airport
ICAO: OIKQ – IATA: GSM
Summary
Name Qeshm International Airport
Region Middle East
Territory Iran IR.gif
Location Direstan, Hormuzgan Province
Serving Qeshm Island
Elevation 13.716 m
45 ft13.716 m
Coordinates 26° 45' 21.97" N, 55° 53' 43.49" E
Runways
Designator Length Width Surface ROPS
5/23 4226 m13,864.829 ft
45 m147.638 ft
ASP /


METAR
Observation OIKQ 201500Z 12012KT 2000 HZ NSC 35/27 Q0996
Station Gheshm Island / Dayrestan
Date/Time 20 June 2019 15:00:00
Wind direction 120°
Wind speed 12 kts
Lowest cloud amount nil significant cloud
Temperature 35°C
Dew point 27°C
Humidity 63%
QNH 996 hPa
Weather condition n/a

Also known as Dayrestan Airport, this airport serves the island of Qeshm in the straights of Hormuz, off the south coast of Iran.

Climatology

Warm Desert climate (Köppen climate classification BWh).

Maps

Terrain

Loading map...

Airport Layout

Loading map...


Accidents & Serious Incidents at or in vicinity of OIKQ

None on SKYbrary